createdAt,value
2022-11-22T00:00:41.825Z,7.55
2022-11-22T00:03:09.623Z,7.50
2022-11-22T00:05:37.416Z,7.88
2022-11-22T00:08:05.563Z,7.50
2022-11-22T00:10:33.423Z,7.00
2022-11-22T00:13:02.534Z,7.00
2022-11-22T00:15:30.790Z,7.70
2022-11-22T00:17:58.592Z,7.35
2022-11-22T00:20:26.525Z,7.20
2022-11-22T00:22:54.345Z,6.60
2022-11-22T00:25:22.018Z,6.75
2022-11-22T00:27:49.682Z,6.88
2022-11-22T00:30:19.065Z,7.60
2022-11-22T00:32:46.872Z,7.03
2022-11-22T00:35:14.649Z,7.00
2022-11-22T00:37:42.438Z,6.57
2022-11-22T00:40:11.346Z,6.78
2022-11-22T00:42:39.128Z,7.45
2022-11-22T00:45:07.970Z,7.43
2022-11-22T00:47:37.074Z,7.13
2022-11-22T00:50:05.334Z,7.40
2022-11-22T00:52:33.254Z,7.78
2022-11-22T00:55:01.073Z,7.43
2022-11-22T00:57:28.910Z,7.95
2022-11-22T00:59:57.735Z,8.25
2022-11-22T01:02:25.449Z,7.57
2022-11-22T01:04:54.500Z,7.57
2022-11-22T01:07:22.239Z,7.82
2022-11-22T01:09:49.920Z,8.25
2022-11-22T01:12:17.592Z,8.30
2022-11-22T01:14:45.323Z,8.00
2022-11-22T01:17:12.997Z,7.90
2022-11-22T01:19:40.900Z,8.70
2022-11-22T01:22:09.976Z,9.27
2022-11-22T01:24:37.704Z,8.52
2022-11-22T01:27:05.594Z,8.45
2022-11-22T01:29:33.264Z,8.25
2022-11-22T01:32:00.892Z,8.32
2022-11-22T01:34:28.630Z,8.38
2022-11-22T01:36:56.355Z,9.00
2022-11-22T01:39:25.489Z,8.27
2022-11-22T01:41:53.230Z,8.52
2022-11-22T01:44:22.683Z,8.60
2022-11-22T01:46:52.634Z,8.68
2022-11-22T01:49:25.625Z,8.95
2022-11-22T01:51:55.268Z,9.15
2022-11-22T01:54:26.911Z,8.90
2022-11-22T01:56:56.486Z,8.90
2022-11-22T01:59:26.523Z,9.02
2022-11-22T02:01:54.696Z,9.43
2022-11-22T02:04:23.610Z,8.60
2022-11-22T02:06:55.020Z,9.65
2022-11-22T02:09:23.193Z,6.68
2022-11-22T02:11:55.273Z,9.68
2022-11-22T02:16:55.464Z,8.93
2022-11-22T02:19:30.307Z,8.38
2022-11-22T02:22:02.861Z,8.48
2022-11-22T02:24:34.442Z,8.88
2022-11-22T02:27:03.858Z,9.32
2022-11-22T02:29:32.513Z,7.75
2022-11-22T02:32:00.424Z,7.35
2022-11-22T02:34:28.168Z,8.55
2022-11-22T02:36:56.177Z,8.38
2022-11-22T02:39:28.011Z,9.27
2022-11-22T02:41:56.744Z,8.65
2022-11-22T02:44:26.841Z,8.88
2022-11-22T02:46:55.974Z,8.55
2022-11-22T02:49:25.822Z,8.10
2022-11-22T02:51:54.317Z,9.65
2022-11-22T02:54:22.076Z,7.38
2022-11-22T02:56:50.027Z,8.07
2022-11-22T02:59:17.741Z,7.95
2022-11-22T03:01:48.318Z,7.68
2022-11-22T03:04:25.012Z,7.97
2022-11-22T03:06:54.218Z,8.45
2022-11-22T03:09:22.045Z,8.38
2022-11-22T03:11:49.895Z,8.27
2022-11-22T03:14:17.921Z,7.93
2022-11-22T03:16:48.568Z,8.35
2022-11-22T03:19:16.628Z,7.85
2022-11-22T03:21:45.514Z,8.07
2022-11-22T03:24:13.335Z,8.38
2022-11-22T03:26:41.207Z,7.43
2022-11-22T03:29:09.093Z,8.40
2022-11-22T03:31:37.196Z,7.78
2022-11-22T03:34:06.494Z,7.53
2022-11-22T03:36:34.189Z,7.40
2022-11-22T03:39:01.993Z,7.20
2022-11-22T03:41:29.834Z,7.93
2022-11-22T03:43:57.687Z,7.97
2022-11-22T03:46:25.464Z,7.25
2022-11-22T03:48:53.239Z,7.60
2022-11-22T03:51:22.587Z,8.35
2022-11-22T03:53:50.445Z,8.02
2022-11-22T03:56:18.249Z,8.15
2022-11-22T03:58:46.144Z,7.50
2022-11-22T04:01:16.750Z,7.88
2022-11-22T04:03:44.941Z,6.90
2022-11-22T04:06:12.851Z,7.40
2022-11-22T04:08:42.277Z,6.72
2022-11-22T04:11:10.223Z,7.90
2022-11-22T04:13:55.271Z,6.80
2022-11-22T04:16:23.026Z,7.28
2022-11-22T04:18:50.782Z,6.45
2022-11-22T04:21:35.542Z,6.40
2022-11-22T04:24:23.507Z,6.95
2022-11-22T04:26:51.394Z,6.80
2022-11-22T04:29:20.135Z,6.70
2022-11-22T04:32:20.599Z,7.28
2022-11-22T04:34:48.461Z,6.72
2022-11-22T04:37:16.130Z,6.78
2022-11-22T04:39:45.347Z,6.93
2022-11-22T04:42:30.657Z,6.97
2022-11-22T04:44:58.424Z,6.88
2022-11-22T04:47:47.564Z,6.47
2022-11-22T04:50:35.572Z,7.13
2022-11-22T04:53:03.544Z,6.93
2022-11-22T04:55:32.829Z,6.85
2022-11-22T04:58:00.805Z,7.07
2022-11-22T05:00:29.174Z,7.07
2022-11-22T05:02:57.026Z,6.88
2022-11-22T05:05:24.991Z,6.70
2022-11-22T05:07:52.727Z,7.18
2022-11-22T05:10:26.011Z,7.10
2022-11-22T05:12:56.053Z,6.95
2022-11-22T05:15:23.731Z,6.57
2022-11-22T05:17:51.371Z,6.88
2022-11-22T05:20:19.042Z,6.68
2022-11-22T05:23:04.263Z,6.55
2022-11-22T05:25:32.019Z,6.35
2022-11-22T05:28:01.392Z,6.35
2022-11-22T16:00:31.209Z,7.97
2022-11-22T17:22:03.090Z,21.95
2022-11-22T17:23:00.835Z,17.60
2022-11-22T17:25:28.560Z,18.77
2022-11-22T17:27:56.572Z,27.05
2022-11-22T17:30:24.585Z,23.35
2022-11-22T17:32:52.438Z,12.77
2022-11-22T17:35:20.605Z,9.77
2022-11-22T17:37:54.424Z,11.40
2022-11-22T17:40:22.334Z,10.45
2022-11-22T17:42:50.116Z,9.50
2022-11-22T17:45:17.862Z,8.43
2022-11-22T17:47:45.766Z,7.97
2022-11-22T17:50:13.487Z,8.55
2022-11-22T17:52:41.365Z,8.30
2022-11-22T17:55:14.408Z,9.13
2022-11-22T17:57:42.728Z,9.68
2022-11-22T18:14:40.835Z,8.50
2022-11-22T18:20:48.754Z,8.80
2022-11-22T18:23:17.014Z,8.80
2022-11-22T18:25:48.289Z,9.32
2022-11-22T18:28:38.738Z,5.93
2022-11-22T18:31:09.549Z,7.38
2022-11-22T18:33:37.441Z,8.57
2022-11-22T18:36:49.516Z,9.27
2022-11-22T18:38:57.059Z,8.80
2022-11-22T18:41:24.804Z,7.60
2022-11-22T18:43:52.538Z,8.07
2022-11-22T18:46:21.676Z,8.25
2022-11-22T18:48:50.150Z,7.85
2022-11-22T18:51:18.160Z,10.00
2022-11-22T18:53:45.936Z,9.80
2022-11-22T18:56:16.910Z,8.68
2022-11-22T18:58:44.973Z,9.40
2022-11-22T19:01:13.325Z,8.75
2022-11-22T19:03:42.518Z,8.48
2022-11-22T19:06:13.037Z,8.05
2022-11-22T19:08:41.348Z,7.30
2022-11-22T19:11:09.500Z,7.75
2022-11-22T19:13:38.672Z,7.72
2022-11-22T19:16:07.214Z,7.75
2022-11-22T19:18:41.300Z,7.43
2022-11-22T19:21:13.679Z,8.05
2022-11-22T19:23:41.996Z,8.20
2022-11-22T19:26:11.390Z,8.75
2022-11-22T19:28:39.201Z,7.90
2022-11-22T19:31:08.622Z,7.90
2022-11-22T19:33:36.456Z,9.18
2022-11-22T19:36:06.593Z,8.55
2022-11-22T19:38:35.785Z,9.07
2022-11-22T19:41:08.476Z,9.02
2022-11-22T19:43:36.370Z,8.75
2022-11-22T19:46:04.416Z,8.95
2022-11-22T19:48:32.735Z,8.27
2022-11-22T19:51:00.662Z,8.75
2022-11-22T19:53:28.394Z,9.75
2022-11-22T19:56:03.167Z,8.70
2022-11-22T19:58:31.236Z,9.00
2022-11-22T20:01:05.473Z,9.15
2022-11-22T20:03:34.367Z,7.63
2022-11-22T20:06:02.940Z,8.18
2022-11-22T20:08:31.128Z,8.30
2022-11-22T20:11:04.335Z,8.65
2022-11-22T20:13:34.538Z,8.93
2022-11-22T20:16:06.844Z,9.98
2022-11-22T20:18:34.518Z,13.05
2022-11-22T20:21:02.789Z,15.00
2022-11-22T20:23:30.719Z,10.90
2022-11-22T20:26:03.695Z,12.32
2022-11-22T20:28:31.471Z,10.27
2022-11-22T20:31:06.690Z,12.35
2022-11-22T20:33:35.175Z,13.52
2022-11-22T20:36:04.276Z,13.15
2022-11-22T20:38:33.768Z,9.55
2022-11-22T20:41:03.252Z,9.77
2022-11-22T20:43:31.647Z,9.57
2022-11-22T20:46:03.073Z,8.88
2022-11-22T20:48:31.613Z,7.00
2022-11-22T20:50:59.390Z,6.95
2022-11-22T20:53:27.264Z,7.70
2022-11-22T20:55:55.200Z,6.57
2022-11-22T20:58:25.970Z,8.15
2022-11-22T21:00:53.804Z,7.47
2022-11-22T21:03:21.601Z,8.00
2022-11-22T21:05:52.164Z,9.00
2022-11-22T21:08:20.206Z,10.00
2022-11-22T21:10:47.859Z,7.93
2022-11-22T21:13:15.597Z,8.82
2022-11-22T21:15:44.769Z,8.10
2022-11-22T21:18:28.115Z,7.90
2022-11-22T21:20:55.829Z,9.15
2022-11-22T21:23:23.531Z,8.43
2022-11-22T21:25:51.722Z,8.02
2022-11-22T21:28:19.528Z,9.50
2022-11-22T21:30:53.566Z,7.80
2022-11-22T21:33:21.259Z,7.90
2022-11-22T21:35:49.172Z,7.60
2022-11-22T21:38:16.828Z,7.85
2022-11-22T21:40:51.359Z,7.80
2022-11-22T21:43:19.004Z,8.55
2022-11-22T21:45:48.114Z,7.55
2022-11-22T21:48:16.168Z,7.68
2022-11-22T21:50:43.863Z,8.13
2022-11-22T21:53:11.682Z,8.02
2022-11-22T21:55:39.571Z,7.57
2022-11-22T21:58:07.825Z,6.75
2022-11-22T22:00:35.522Z,7.05
2022-11-22T22:03:04.716Z,7.20
2022-11-22T22:05:32.651Z,6.90
2022-11-22T22:08:00.427Z,7.00
2022-11-22T22:10:28.250Z,6.75
2022-11-22T22:12:55.916Z,6.57
2022-11-22T22:15:23.651Z,7.78
2022-11-22T22:17:53.494Z,6.70
2022-11-22T22:20:22.609Z,7.13
2022-11-22T22:22:50.512Z,7.20
2022-11-22T22:25:18.956Z,7.15
2022-11-22T22:27:46.632Z,6.95
2022-11-22T22:30:15.901Z,7.50
2022-11-22T22:32:43.632Z,8.77
2022-11-22T22:35:11.656Z,7.25
2022-11-22T22:37:40.722Z,8.40
2022-11-22T22:40:09.087Z,14.70
2022-11-22T22:42:36.786Z,11.40
2022-11-22T22:45:04.789Z,8.25
2022-11-22T22:47:32.630Z,7.22
2022-11-22T22:50:00.382Z,6.95
2022-11-22T22:52:28.048Z,6.57
2022-11-22T22:54:57.112Z,6.65
2022-11-22T22:57:24.797Z,7.18
2022-11-22T22:59:53.047Z,8.18
2022-11-22T23:02:20.737Z,7.40
2022-11-22T23:04:48.438Z,6.72
2022-11-22T23:07:16.312Z,6.80
2022-11-22T23:09:44.038Z,7.05
2022-11-22T23:12:13.146Z,7.85
2022-11-22T23:14:41.504Z,6.93
2022-11-22T23:17:10.244Z,7.05
2022-11-22T23:19:38.199Z,7.03
2022-11-22T23:22:06.260Z,7.25
2022-11-22T23:24:34.346Z,6.78
2022-11-22T23:27:02.155Z,7.15
2022-11-22T23:29:31.392Z,6.93
2022-11-22T23:31:59.214Z,7.57
2022-11-22T23:34:27.018Z,7.03
2022-11-22T23:36:54.868Z,7.15
2022-11-22T23:39:22.663Z,6.78
2022-11-22T23:41:50.311Z,6.85
2022-11-22T23:44:17.910Z,6.70
2022-11-22T23:46:46.978Z,6.50
2022-11-22T23:49:14.731Z,6.72
2022-11-22T23:51:42.347Z,6.85
2022-11-22T23:54:11.436Z,7.03
2022-11-22T23:56:39.093Z,7.15
2022-11-22T23:59:06.748Z,7.97
